Terminal Aerodrome Forecast
Issued by NWS Cheyenne, WY

Home | Current Version | Previous Version | Text Only | Print | Product List | Glossary On
Versions: 1 2 3 4 5 6 7 8 9 10 11 12 13 14 15
000
FTUS45 KCYS 231135
TAFCYS
TAF
KCYS 231135Z 2312/2412 24010KT P6SM SCT200
     FM231600 33012KT P6SM FEW250
     FM232000 06008KT P6SM FEW200
     FM232200 11009KT P6SM VCTS BKN100CB
     FM240500 25008KT P6SM BKN200=

USA.gov is the U.S. government's official web portal to all federal, state and local government web resources and services.